Time;durP1;ratioP1;P1;durP2;ratioP2;P2;SDS_P1;SDS_P2;PMS_P1;PMS_P2;Temp;Humidity;BMP_temperature;BMP_pressure;BME280_temperature;BME280_humidity;BME280_pressure;Samples;Min_cycle;Max_cycle;Signal;HPM_P1;HPM_P2
2021/12/16 00:06:11;;;;;;;75.68;37.40;;;;;;;;;;4960111;29;20046;-94
2021/12/16 00:08:35;;;;;;;96.18;39.47;;;;;;;;;;4961719;28;20034;-93
2021/12/16 00:11:15;;;;;;;84.07;37.45;;;;;;;;;;4962014;28;20039;-93
2021/12/16 00:35:38;;;;;;;80.55;37.95;;;;;;;;;;4901320;29;20035;-96
2021/12/16 00:38:05;;;;;;;72.85;37.33;;;;;;;;;;4900639;29;20061;-96
2021/12/16 00:43:41;;;;;;;;;;;;;;;;;;4911407;29;20151;-96
2021/12/16 00:54:11;;;;;;;76.85;34.97;;;;;;;;;;4904980;29;20421;-96
2021/12/16 00:57:01;;;;;;;68.93;33.50;;;;;;;;;;4907067;29;20230;-95
2021/12/16 00:59:32;;;;;;;68.15;34.30;;;;;;;;;;4910557;29;20031;-93
2021/12/16 01:10:26;;;;;;;67.82;32.40;;;;;;;;;;4924631;29;20040;-96
2021/12/16 01:46:23;;;;;;;;;;;;;;;;;;4922941;29;20031;-96
2021/12/16 01:51:36;;;;;;;83.55;38.15;;;;;;;;;;4941367;29;20050;-96
2021/12/16 02:07:51;;;;;;;79.63;35.08;;;;;;;;;;5001000;28;20133;-96
2021/12/16 02:10:16;;;;;;;88.47;38.92;;;;;;;;;;5001144;28;20023;-96
2021/12/16 02:32:48;;;;;;;86.97;37.97;;;;;;;;;;4981821;28;20046;-96
2021/12/16 02:37:32;;;;;;;79.47;40.22;;;;;;;;;;5000614;28;20030;-96
2021/12/16 02:39:58;;;;;;;83.95;40.83;;;;;;;;;;4982889;28;20038;-96
2021/12/16 02:42:35;;;;;;;92.30;39.60;;;;;;;;;;4999736;28;20054;-95
2021/12/16 02:50:16;;;;;;;83.00;39.50;;;;;;;;;;5000146;28;20444;-96
2021/12/16 02:52:42;;;;;;;98.55;50.80;;;;;;;;;;4982519;28;20027;-95
2021/12/16 02:55:09;;;;;;;89.03;41.10;;;;;;;;;;4999896;28;20050;-96
2021/12/16 02:57:44;;;;;;;88.55;39.47;;;;;;;;;;4982681;28;20050;-96
2021/12/16 03:00:13;;;;;;;77.28;38.13;;;;;;;;;;5000271;28;20030;-95
2021/12/16 03:02:40;;;;;;;78.22;38.25;;;;;;;;;;5000042;28;20030;-95
2021/12/16 03:05:07;;;;;;;82.93;40.70;;;;;;;;;;4999948;28;20030;-95
2021/12/16 03:07:34;;;;;;;82.50;38.03;;;;;;;;;;4982480;28;20133;-95
2021/12/16 03:10:40;;;;;;;81.20;38.55;;;;;;;;;;4999086;28;20416;-96
2021/12/16 03:13:24;;;;;;;81.40;37.53;;;;;;;;;;4998226;28;20033;-96
2021/12/16 03:16:20;;;;;;;80.35;38.63;;;;;;;;;;4973137;28;20048;-96
2021/12/16 03:21:22;;;;;;;72.68;34.85;;;;;;;;;;4960668;28;20369;-96
2021/12/16 03:39:45;;;;;;;77.25;38.97;;;;;;;;;;4978763;28;20162;-96
2021/12/16 03:42:12;;;;;;;86.60;41.37;;;;;;;;;;4977793;28;20034;-96
2021/12/16 03:44:57;;;;;;;78.35;39.75;;;;;;;;;;4962354;28;20062;-96
2021/12/16 03:47:27;;;;;;;85.47;41.10;;;;;;;;;;4979389;28;20342;-96
2021/12/16 03:49:53;;;;;;;86.45;41.20;;;;;;;;;;4947361;29;20412;-96
2021/12/16 03:52:19;;;;;;;94.13;42.97;;;;;;;;;;4960131;29;20083;-95
2021/12/16 03:54:51;;;;;;;91.40;41.70;;;;;;;;;;4960337;29;20098;-95
2021/12/16 03:57:19;;;;;;;90.93;41.05;;;;;;;;;;4943025;29;20028;-95
2021/12/16 03:59:45;;;;;;;81.32;41.15;;;;;;;;;;4958988;28;20027;-96
2021/12/16 04:02:26;;;;;;;85.63;41.55;;;;;;;;;;4978697;28;20038;-95
2021/12/16 04:04:53;;;;;;;82.13;39.67;;;;;;;;;;4946445;29;20038;-96
2021/12/16 04:07:20;;;;;;;85.65;39.88;;;;;;;;;;4942830;29;20035;-96
2021/12/16 04:09:47;;;;;;;85.35;40.17;;;;;;;;;;4959882;29;20077;-95
2021/12/16 04:15:17;;;;;;;84.38;39.90;;;;;;;;;;4959533;29;20111;-95
2021/12/16 04:17:43;;;;;;;78.00;38.55;;;;;;;;;;4942455;29;20062;-95
2021/12/16 04:20:11;;;;;;;79.00;37.40;;;;;;;;;;4960010;28;20059;-95
2021/12/16 04:22:42;;;;;;;75.80;38.38;;;;;;;;;;4965446;28;20039;-95
2021/12/16 04:25:10;;;;;;;79.95;38.35;;;;;;;;;;4967627;28;20022;-95
2021/12/16 04:27:56;;;;;;;75.13;38.28;;;;;;;;;;4952209;28;20043;-96
2021/12/16 04:30:24;;;;;;;79.90;39.03;;;;;;;;;;4966618;28;20027;-95
2021/12/16 04:32:50;;;;;;;76.63;38.33;;;;;;;;;;4978612;28;20022;-95
2021/12/16 04:35:17;;;;;;;77.43;38.78;;;;;;;;;;4978349;28;20054;-96
2021/12/16 04:37:43;;;;;;;79.60;40.92;;;;;;;;;;4961794;28;20074;-95
2021/12/16 04:40:12;;;;;;;79.38;39.45;;;;;;;;;;4961418;28;20035;-96
2021/12/16 04:43:01;;;;;;;79.57;40.60;;;;;;;;;;4984275;28;20039;-95
2021/12/16 04:45:27;;;;;;;90.70;45.15;;;;;;;;;;4978557;28;20536;-94
2021/12/16 04:47:53;;;;;;;89.35;44.88;;;;;;;;;;4973846;28;20055;-95
2021/12/16 04:50:20;;;;;;;89.32;43.85;;;;;;;;;;4959030;29;20035;-94
2021/12/16 04:52:46;;;;;;;86.15;43.67;;;;;;;;;;4942389;29;20406;-96
2021/12/16 04:55:19;;;;;;;84.97;42.28;;;;;;;;;;4986548;28;20034;-96
2021/12/16 04:57:58;;;;;;;77.32;40.88;;;;;;;;;;4988324;28;20019;-96
2021/12/16 05:00:27;;;;;;;79.30;42.50;;;;;;;;;;4970770;28;20439;-96
2021/12/16 05:02:53;;;;;;;79.78;40.13;;;;;;;;;;4961179;28;20031;-96
2021/12/16 05:05:21;;;;;;;91.47;49.55;;;;;;;;;;4951735;28;20027;-96
2021/12/16 05:07:47;;;;;;;90.70;50.28;;;;;;;;;;4964822;28;20306;-96
2021/12/16 05:10:14;;;;;;;95.03;51.25;;;;;;;;;;4964619;28;20425;-96
2021/12/16 05:13:00;;;;;;;77.78;42.75;;;;;;;;;;4978816;28;20332;-96
2021/12/16 05:15:30;;;;;;;73.68;37.53;;;;;;;;;;4978110;28;20034;-96
2021/12/16 05:17:58;;;;;;;86.00;46.03;;;;;;;;;;4978783;28;20046;-96
2021/12/16 05:20:27;;;;;;;89.05;49.80;;;;;;;;;;4952036;29;20035;-95
2021/12/16 05:25:57;;;;;;;79.97;42.95;;;;;;;;;;4959443;28;20054;-96
2021/12/16 05:28:24;;;;;;;87.40;49.63;;;;;;;;;;4958375;28;20039;-95
2021/12/16 05:30:51;;;;;;;87.28;50.42;;;;;;;;;;4959310;28;20345;-96
2021/12/16 05:33:17;;;;;;;83.20;45.85;;;;;;;;;;4969397;28;20030;-96
2021/12/16 05:35:44;;;;;;;81.20;43.42;;;;;;;;;;4961774;28;20023;-96
2021/12/16 05:38:10;;;;;;;77.13;41.35;;;;;;;;;;4959135;28;20027;-96
2021/12/16 05:40:36;;;;;;;88.97;48.85;;;;;;;;;;4955682;28;20077;-96
2021/12/16 05:46:07;;;;;;;86.72;46.65;;;;;;;;;;4981585;28;20025;-96
2021/12/16 05:48:34;;;;;;;79.70;44.47;;;;;;;;;;4964307;28;20121;-95
2021/12/16 05:51:04;;;;;;;86.65;46.60;;;;;;;;;;4981092;28;20026;-96
2021/12/16 05:53:30;;;;;;;84.50;45.22;;;;;;;;;;4964272;28;20054;-94
2021/12/16 05:55:56;;;;;;;91.80;53.10;;;;;;;;;;4964151;28;20027;-95
2021/12/16 06:04:30;;;;;;;84.25;46.20;;;;;;;;;;4977591;28;20046;-95
2021/12/16 06:06:56;;;;;;;90.90;52.80;;;;;;;;;;4964326;28;20325;-96
2021/12/16 06:09:22;;;;;;;83.72;47.58;;;;;;;;;;4981674;28;20042;-96
2021/12/16 06:12:21;;;;;;;81.10;47.15;;;;;;;;;;4981681;28;20102;-95
2021/12/16 06:14:56;;;;;;;83.50;46.38;;;;;;;;;;4971662;28;20030;-96
2021/12/16 06:28:23;;;;;;;100.53;56.35;;;;;;;;;;4979511;28;20081;-96
2021/12/16 06:30:49;;;;;;;95.55;54.75;;;;;;;;;;4961389;29;20035;-95
2021/12/16 06:33:17;;;;;;;81.82;43.92;;;;;;;;;;4948107;28;20082;-94
2021/12/16 06:35:44;;;;;;;86.65;47.42;;;;;;;;;;4980596;28;20018;-94
2021/12/16 06:38:10;;;;;;;106.95;52.30;;;;;;;;;;4962754;28;20038;-96
2021/12/16 06:40:36;;;;;;;99.25;50.92;;;;;;;;;;4980714;28;20463;-95
2021/12/16 06:43:03;;;;;;;114.25;59.70;;;;;;;;;;4980144;28;20035;-96
2021/12/16 06:45:35;;;;;;;93.72;49.03;;;;;;;;;;4980360;28;20089;-94
2021/12/16 06:48:06;;;;;;;152.25;72.28;;;;;;;;;;4961367;28;20043;-94
2021/12/16 06:53:20;;;;;;;123.55;53.55;;;;;;;;;;4962344;29;20034;-96
2021/12/16 06:56:04;;;;;;;118.45;60.50;;;;;;;;;;4964560;29;20031;-95
2021/12/16 06:59:01;;;;;;;147.60;78.20;;;;;;;;;;4964205;28;20447;-95
2021/12/16 07:01:39;;;;;;;110.80;58.88;;;;;;;;;;4954308;28;20019;-96
2021/12/16 07:04:10;;;;;;;99.50;52.58;;;;;;;;;;4961058;28;20106;-96
2021/12/16 07:06:38;;;;;;;87.07;47.35;;;;;;;;;;4970223;28;20294;-95
2021/12/16 07:09:13;;;;;;;95.40;52.08;;;;;;;;;;4980446;28;20027;-96
2021/12/16 07:11:41;;;;;;;77.93;41.75;;;;;;;;;;4979259;28;20030;-96
2021/12/16 07:14:14;;;;;;;88.68;46.83;;;;;;;;;;4964546;28;20049;-96
2021/12/16 07:16:42;;;;;;;86.32;43.95;;;;;;;;;;4983164;28;20113;-96
2021/12/16 07:19:09;;;;;;;76.38;40.63;;;;;;;;;;4953336;29;20047;-96
2021/12/16 07:21:38;;;;;;;71.57;38.17;;;;;;;;;;4960939;29;20310;-96
2021/12/16 07:24:06;;;;;;;75.57;39.38;;;;;;;;;;4960852;28;20025;-96
2021/12/16 07:26:33;;;;;;;73.65;39.13;;;;;;;;;;4943695;29;20469;-95
2021/12/16 07:28:59;;;;;;;72.93;40.05;;;;;;;;;;4944613;29;20071;-96
2021/12/16 07:31:27;;;;;;;71.93;38.38;;;;;;;;;;4960804;29;20063;-94
2021/12/16 07:33:53;;;;;;;79.75;41.17;;;;;;;;;;4960501;28;20102;-96
2021/12/16 07:36:19;;;;;;;82.30;43.22;;;;;;;;;;4964998;28;20027;-95
2021/12/16 07:38:46;;;;;;;112.13;61.08;;;;;;;;;;4943524;28;20130;-88
2021/12/16 07:41:13;;;;;;;101.63;51.55;;;;;;;;;;4961242;28;20376;-94
2021/12/16 07:44:09;;;;;;;99.18;55.30;;;;;;;;;;4974990;28;20405;-92
2021/12/16 07:46:36;;;;;;;83.93;42.28;;;;;;;;;;4961092;28;20440;-94
2021/12/16 07:49:03;;;;;;;122.13;54.67;;;;;;;;;;4955630;29;20036;-93
2021/12/16 07:51:29;;;;;;;99.47;48.70;;;;;;;;;;4943294;29;20031;-96
2021/12/16 07:53:55;;;;;;;107.20;50.65;;;;;;;;;;4973040;28;20409;-95
2021/12/16 07:56:21;;;;;;;112.75;57.90;;;;;;;;;;4951926;29;20027;-95
2021/12/16 07:58:47;;;;;;;138.25;64.00;;;;;;;;;;4943144;29;20118;-95
2021/12/16 08:01:13;;;;;;;139.93;62.97;;;;;;;;;;4960584;28;20034;-93
2021/12/16 08:03:41;;;;;;;132.70;61.70;;;;;;;;;;4942909;29;20076;-94
2021/12/16 08:06:12;;;;;;;123.93;59.65;;;;;;;;;;4969778;28;20409;-93
2021/12/16 08:08:38;;;;;;;124.18;58.65;;;;;;;;;;4977095;28;20037;-93
2021/12/16 08:11:05;;;;;;;130.68;62.63;;;;;;;;;;4979229;28;20033;-92
2021/12/16 08:13:31;;;;;;;125.40;62.28;;;;;;;;;;4977353;28;20031;-93
2021/12/16 08:15:59;;;;;;;126.65;59.50;;;;;;;;;;4961886;28;20129;-94
2021/12/16 08:18:26;;;;;;;115.40;55.33;;;;;;;;;;4978588;28;20026;-94
2021/12/16 08:20:52;;;;;;;98.13;48.83;;;;;;;;;;4978927;28;20085;-93
2021/12/16 08:23:20;;;;;;;98.30;48.88;;;;;;;;;;4979600;28;20060;-93
2021/12/16 08:25:46;;;;;;;105.22;54.78;;;;;;;;;;4961961;28;20073;-94
2021/12/16 08:28:12;;;;;;;105.43;54.97;;;;;;;;;;4979081;28;20019;-92
2021/12/16 08:30:40;;;;;;;112.20;55.83;;;;;;;;;;4979046;28;20317;-92
2021/12/16 08:33:09;;;;;;;95.65;51.00;;;;;;;;;;4978885;28;20368;-93
2021/12/16 08:35:36;;;;;;;95.78;48.00;;;;;;;;;;4961832;28;20374;-94
2021/12/16 08:38:02;;;;;;;115.13;51.00;;;;;;;;;;4978934;28;20030;-94
2021/12/16 08:40:29;;;;;;;112.00;49.17;;;;;;;;;;4978942;28;20073;-95
2021/12/16 08:42:55;;;;;;;100.65;48.78;;;;;;;;;;4978831;28;20055;-93
2021/12/16 08:45:24;;;;;;;79.88;41.70;;;;;;;;;;4978755;28;20023;-92
2021/12/16 08:47:51;;;;;;;73.32;39.47;;;;;;;;;;4961551;28;20035;-94
2021/12/16 08:50:18;;;;;;;73.63;39.42;;;;;;;;;;4978720;28;20031;-92
2021/12/16 08:52:45;;;;;;;77.20;42.97;;;;;;;;;;4979080;28;20027;-89
2021/12/16 08:55:11;;;;;;;76.20;41.70;;;;;;;;;;4944364;29;20027;-88
2021/12/16 08:57:37;;;;;;;77.40;42.92;;;;;;;;;;4968528;28;20310;-88
2021/12/16 09:00:05;;;;;;;72.45;40.65;;;;;;;;;;4973950;28;20031;-88
2021/12/16 09:02:31;;;;;;;73.22;40.92;;;;;;;;;;4976490;28;20034;-89
2021/12/16 09:04:57;;;;;;;68.93;39.50;;;;;;;;;;4954789;28;20035;-88
2021/12/16 09:07:24;;;;;;;84.82;48.05;;;;;;;;;;4975358;28;20031;-88
2021/12/16 09:09:50;;;;;;;81.18;46.50;;;;;;;;;;4970299;28;20031;-89
2021/12/16 09:15:44;;;;;;;96.68;56.50;;;;;;;;;;4963665;28;20481;-87
2021/12/16 09:18:12;;;;;;;85.50;46.45;;;;;;;;;;4942786;29;20436;-85
2021/12/16 09:20:39;;;;;;;68.78;41.58;;;;;;;;;;4944293;29;20076;-88
2021/12/16 09:23:06;;;;;;;75.43;41.92;;;;;;;;;;4943839;29;20027;-87
2021/12/16 09:25:32;;;;;;;83.35;45.38;;;;;;;;;;4943897;29;20036;-88
2021/12/16 09:31:04;;;;;;;87.15;45.00;;;;;;;;;;4947673;29;20042;-88
2021/12/16 09:33:30;;;;;;;88.28;46.50;;;;;;;;;;4933085;29;20039;-92
2021/12/16 09:35:59;;;;;;;84.47;44.13;;;;;;;;;;4935385;29;20036;-87
2021/12/16 09:38:26;;;;;;;144.02;63.53;;;;;;;;;;4943575;29;20056;-87
2021/12/16 09:40:54;;;;;;;131.88;57.97;;;;;;;;;;4933743;29;20034;-87
2021/12/16 09:43:22;;;;;;;137.75;64.88;;;;;;;;;;4923247;29;20445;-87
2021/12/16 09:45:48;;;;;;;152.02;68.07;;;;;;;;;;4923138;29;20506;-87
2021/12/16 09:48:14;;;;;;;133.90;66.05;;;;;;;;;;4924049;29;20078;-88
2021/12/16 09:50:41;;;;;;;157.80;71.40;;;;;;;;;;4924289;29;20107;-88
2021/12/16 09:53:07;;;;;;;164.43;75.80;;;;;;;;;;4923048;29;20020;-88
2021/12/16 09:55:34;;;;;;;138.52;66.55;;;;;;;;;;4923313;29;20028;-88
2021/12/16 09:58:00;;;;;;;220.20;95.85;;;;;;;;;;4922735;29;20076;-87
2021/12/16 10:00:29;;;;;;;138.82;65.65;;;;;;;;;;4923219;29;20434;-88
2021/12/16 10:02:55;;;;;;;133.43;63.97;;;;;;;;;;4922744;29;20035;-87
2021/12/16 10:05:21;;;;;;;126.03;63.40;;;;;;;;;;4923715;29;20422;-87
2021/12/16 10:07:48;;;;;;;144.98;63.97;;;;;;;;;;4923587;29;20035;-90
2021/12/16 10:10:19;;;;;;;111.68;63.05;;;;;;;;;;4923621;29;20470;-89
2021/12/16 10:12:48;;;;;;;93.45;54.05;;;;;;;;;;4922821;29;20407;-92
2021/12/16 10:18:18;;;;;;;86.38;47.72;;;;;;;;;;4960209;29;20051;-90
2021/12/16 10:20:44;;;;;;;91.55;51.83;;;;;;;;;;4944811;29;20042;-91
2021/12/16 10:23:12;;;;;;;123.00;71.57;;;;;;;;;;4961674;29;20082;-90
2021/12/16 10:25:38;;;;;;;95.25;53.70;;;;;;;;;;4943873;29;20050;-90
2021/12/16 10:28:04;;;;;;;134.07;73.07;;;;;;;;;;4961439;29;20027;-89
2021/12/16 10:30:39;;;;;;;102.65;57.63;;;;;;;;;;4961724;29;20031;-91
2021/12/16 10:33:13;;;;;;;107.07;58.90;;;;;;;;;;4944009;29;20082;-90
2021/12/16 10:35:39;;;;;;;288.88;138.90;;;;;;;;;;4961449;29;20103;-87
2021/12/16 10:38:07;;;;;;;222.93;112.18;;;;;;;;;;4961456;29;20130;-89
2021/12/16 10:40:35;;;;;;;132.95;67.63;;;;;;;;;;4961542;29;20349;-91
2021/12/16 10:43:07;;;;;;;103.03;58.25;;;;;;;;;;4961431;29;20365;-91
2021/12/16 10:45:41;;;;;;;92.82;53.15;;;;;;;;;;4943946;29;20150;-89
2021/12/16 10:48:10;;;;;;;102.07;55.15;;;;;;;;;;4944429;29;20039;-90
2021/12/16 10:50:51;;;;;;;144.32;74.97;;;;;;;;;;4961057;29;20023;-89
2021/12/16 10:53:18;;;;;;;143.63;68.20;;;;;;;;;;4944177;29;20027;-88
2021/12/16 10:56:01;;;;;;;402.95;168.45;;;;;;;;;;4962037;28;20028;-88
2021/12/16 10:58:54;;;;;;;231.93;107.13;;;;;;;;;;4960945;29;20059;-86
2021/12/16 11:01:35;;;;;;;99.68;53.85;;;;;;;;;;4957348;29;20036;-85
2021/12/16 11:04:02;;;;;;;100.40;53.85;;;;;;;;;;4960831;29;20114;-84
2021/12/16 11:06:30;;;;;;;492.70;270.10;;;;;;;;;;4943856;29;20028;-84
2021/12/16 11:09:16;;;;;;;100.55;54.78;;;;;;;;;;4960890;29;20027;-85
2021/12/16 11:11:42;;;;;;;129.30;68.68;;;;;;;;;;4960622;29;20042;-84
2021/12/16 11:14:08;;;;;;;131.02;72.28;;;;;;;;;;4960272;29;20019;-84
2021/12/16 11:16:36;;;;;;;118.32;67.72;;;;;;;;;;4943342;29;20039;-84
2021/12/16 11:19:03;;;;;;;115.38;62.53;;;;;;;;;;4960581;29;20023;-84
2021/12/16 11:21:40;;;;;;;92.95;51.28;;;;;;;;;;4960605;29;20033;-85
2021/12/16 11:24:25;;;;;;;113.68;59.38;;;;;;;;;;4960649;29;20027;-84
2021/12/16 11:26:52;;;;;;;234.63;109.80;;;;;;;;;;4960515;29;20027;-85
2021/12/16 11:29:19;;;;;;;128.18;71.85;;;;;;;;;;4960159;29;20031;-85
2021/12/16 11:31:49;;;;;;;92.95;54.38;;;;;;;;;;4960354;29;20026;-85
2021/12/16 11:34:19;;;;;;;84.45;50.17;;;;;;;;;;4960401;29;20054;-85
2021/12/16 11:36:47;;;;;;;89.68;52.05;;;;;;;;;;4942373;29;20031;-85
2021/12/16 11:39:16;;;;;;;83.25;49.15;;;;;;;;;;4960230;29;20024;-84
2021/12/16 11:41:42;;;;;;;90.75;50.65;;;;;;;;;;4960099;29;20020;-85
2021/12/16 11:44:08;;;;;;;77.13;44.67;;;;;;;;;;4960095;29;20030;-85
2021/12/16 11:46:34;;;;;;;78.70;46.28;;;;;;;;;;4960324;29;20050;-85
2021/12/16 11:49:04;;;;;;;78.80;45.00;;;;;;;;;;4960054;29;20425;-85
2021/12/16 11:51:39;;;;;;;80.95;48.90;;;;;;;;;;4959981;29;20035;-85
2021/12/16 11:54:17;;;;;;;86.35;50.92;;;;;;;;;;4959274;29;20358;-84
2021/12/16 11:56:47;;;;;;;113.05;57.25;;;;;;;;;;4960022;29;20031;-85
2021/12/16 11:59:20;;;;;;;100.80;56.85;;;;;;;;;;4959718;29;20023;-85
2021/12/16 12:01:48;;;;;;;78.38;46.05;;;;;;;;;;4942866;29;20488;-84
2021/12/16 12:04:14;;;;;;;79.55;47.38;;;;;;;;;;4959965;29;20031;-84
2021/12/16 12:06:43;;;;;;;84.63;49.55;;;;;;;;;;4959770;29;20429;-87
2021/12/16 12:09:10;;;;;;;89.85;52.28;;;;;;;;;;4960043;29;20031;-87
2021/12/16 12:11:40;;;;;;;93.78;53.03;;;;;;;;;;4959436;29;20031;-87
2021/12/16 12:14:20;;;;;;;88.68;50.28;;;;;;;;;;4942651;29;20396;-87
2021/12/16 12:16:47;;;;;;;83.13;48.13;;;;;;;;;;4959531;29;20109;-87
2021/12/16 12:19:16;;;;;;;79.22;46.03;;;;;;;;;;4959544;29;20031;-87
2021/12/16 12:21:45;;;;;;;75.43;42.95;;;;;;;;;;4959647;29;20031;-85
2021/12/16 12:24:16;;;;;;;75.20;46.15;;;;;;;;;;4959520;29;20031;-84
2021/12/16 12:26:52;;;;;;;81.75;47.67;;;;;;;;;;4959650;29;20113;-85
2021/12/16 12:29:21;;;;;;;88.90;52.72;;;;;;;;;;4959267;29;20039;-85
2021/12/16 12:31:50;;;;;;;102.97;62.35;;;;;;;;;;4959500;29;20030;-84
2021/12/16 12:34:17;;;;;;;101.57;61.58;;;;;;;;;;4974284;28;20030;-84
2021/12/16 12:36:44;;;;;;;85.32;50.85;;;;;;;;;;4978791;28;20019;-84
2021/12/16 12:39:15;;;;;;;87.20;52.00;;;;;;;;;;4977203;28;20074;-87
2021/12/16 12:41:42;;;;;;;96.90;53.72;;;;;;;;;;4961553;28;20034;-87
2021/12/16 12:44:08;;;;;;;91.97;52.78;;;;;;;;;;4978572;28;20390;-88
2021/12/16 12:46:39;;;;;;;468.08;218.07;;;;;;;;;;4961773;28;20041;-87
2021/12/16 12:49:07;;;;;;;93.78;52.78;;;;;;;;;;4981827;28;20110;-86
2021/12/16 12:51:36;;;;;;;79.45;48.60;;;;;;;;;;4965436;28;20092;-87
2021/12/16 12:54:14;;;;;;;83.70;49.25;;;;;;;;;;4982517;28;20114;-86
2021/12/16 12:56:40;;;;;;;269.10;133.88;;;;;;;;;;4982336;28;20030;-87
2021/12/16 12:59:11;;;;;;;86.25;50.47;;;;;;;;;;4982341;28;20031;-87
2021/12/16 13:01:37;;;;;;;98.88;52.42;;;;;;;;;;4982555;28;20034;-87
2021/12/16 13:04:26;;;;;;;115.32;59.65;;;;;;;;;;4982525;28;20027;-88
2021/12/16 13:06:54;;;;;;;208.07;100.63;;;;;;;;;;4885521;29;20037;-88
2021/12/16 13:09:29;;;;;;;129.70;65.85;;;;;;;;;;4869636;29;20037;-88
2021/12/16 13:11:55;;;;;;;115.72;58.38;;;;;;;;;;4885571;29;20037;-87
2021/12/16 13:14:36;;;;;;;107.20;52.28;;;;;;;;;;4881067;29;20149;-85
2021/12/16 13:17:30;;;;;;;104.55;52.67;;;;;;;;;;4881509;29;20053;-87
2021/12/16 13:31:23;;;;;;;771.72;373.10;;;;;;;;;;4885248;29;20439;-88
2021/12/16 13:33:55;;;;;;;509.90;240.93;;;;;;;;;;4885228;29;20029;-87
2021/12/16 13:36:39;;;;;;;505.95;241.65;;;;;;;;;;4885264;29;20105;-88
2021/12/16 13:39:09;;;;;;;142.23;78.18;;;;;;;;;;4884819;29;20040;-87
2021/12/16 13:41:36;;;;;;;312.20;154.32;;;;;;;;;;4869579;29;20460;-86
2021/12/16 14:06:38;;;;;;;75.00;44.50;;;;;;;;;;4903445;29;20467;-87
2021/12/16 14:09:17;;;;;;;67.93;42.60;;;;;;;;;;4909834;29;20374;-87
2021/12/16 14:13:08;;;;;;;73.93;44.70;;;;;;;;;;4922128;29;20037;-87
2021/12/16 14:18:07;;;;;;;;;;;;;;;;;;;;;
2021/12/16 14:24:10;;;;;;;73.20;41.22;;;;;;;;;;4825842;29;20046;-87
2021/12/16 14:40:05;;;;;;;75.72;44.67;;;;;;;;;;4865763;29;20041;-86
2021/12/16 14:45:19;;;;;;;75.47;46.30;;;;;;;;;;4865350;29;20033;-87
2021/12/16 14:50:19;;;;;;;71.00;42.58;;;;;;;;;;4863513;29;20061;-87
2021/12/16 14:52:45;;;;;;;75.00;45.58;;;;;;;;;;4865454;29;20026;-87
2021/12/16 14:55:13;;;;;;;87.72;54.10;;;;;;;;;;4931867;29;20501;-86
2021/12/16 14:57:41;;;;;;;81.18;51.20;;;;;;;;;;4946508;28;20110;-86
2021/12/16 15:00:12;;;;;;;87.85;52.00;;;;;;;;;;4980419;28;20023;-87
2021/12/16 15:02:40;;;;;;;75.80;46.23;;;;;;;;;;4963184;28;20030;-86
2021/12/16 15:05:24;;;;;;;80.38;47.47;;;;;;;;;;4975592;28;20286;-87
2021/12/16 15:07:50;;;;;;;79.80;44.15;;;;;;;;;;4963240;28;20035;-88
2021/12/16 15:10:17;;;;;;;77.28;48.50;;;;;;;;;;4980185;28;20027;-87
2021/12/16 15:12:54;;;;;;;71.63;43.33;;;;;;;;;;4963271;28;20321;-87
2021/12/16 15:15:32;;;;;;;74.13;47.83;;;;;;;;;;4979737;28;20023;-87
2021/12/16 15:45:01;;;;;;;89.88;53.15;;;;;;;;;;4960215;29;20030;-87
2021/12/16 15:47:27;;;;;;;85.95;53.80;;;;;;;;;;4962040;28;20027;-87
2021/12/16 15:49:53;;;;;;;94.32;54.17;;;;;;;;;;4979468;28;20035;-88
2021/12/16 15:52:20;;;;;;;75.43;44.85;;;;;;;;;;4979127;28;20031;-87
2021/12/16 15:54:51;;;;;;;66.43;41.47;;;;;;;;;;4978825;28;20414;-87
2021/12/16 15:57:18;;;;;;;65.25;40.88;;;;;;;;;;4959943;29;20023;-86
2021/12/16 16:02:48;;;;;;;85.40;45.38;;;;;;;;;;4961373;28;20138;-87
2021/12/16 16:05:14;;;;;;;78.40;45.47;;;;;;;;;;4963962;28;20031;-86
2021/12/16 16:07:42;;;;;;;70.25;43.47;;;;;;;;;;4960142;28;20042;-88
2021/12/16 16:10:10;;;;;;;77.10;46.22;;;;;;;;;;4948360;29;20098;-86
2021/12/16 16:12:36;;;;;;;75.18;45.53;;;;;;;;;;4959767;29;20016;-86
2021/12/16 16:15:17;;;;;;;71.80;43.28;;;;;;;;;;4967233;28;20027;-86
2021/12/16 16:17:54;;;;;;;77.35;45.72;;;;;;;;;;4978843;28;20050;-87
2021/12/16 16:20:21;;;;;;;87.45;48.33;;;;;;;;;;4979355;28;20356;-87
2021/12/16 16:22:47;;;;;;;76.22;44.05;;;;;;;;;;4961179;28;20133;-87
2021/12/16 16:25:13;;;;;;;81.95;46.58;;;;;;;;;;4962131;28;20026;-87
2021/12/16 16:27:39;;;;;;;74.30;45.22;;;;;;;;;;4976756;28;20027;-86
2021/12/16 16:30:07;;;;;;;75.47;46.40;;;;;;;;;;4976683;28;20039;-87
2021/12/16 16:32:52;;;;;;;80.18;46.30;;;;;;;;;;4961064;28;20126;-87
2021/12/16 16:35:18;;;;;;;86.93;52.17;;;;;;;;;;4975530;28;20041;-88
2021/12/16 16:37:44;;;;;;;88.00;51.10;;;;;;;;;;4978785;28;20420;-88
2021/12/16 16:40:11;;;;;;;82.85;48.20;;;;;;;;;;4979031;28;20050;-85
2021/12/16 16:42:41;;;;;;;97.28;49.22;;;;;;;;;;4961724;28;20027;-85
2021/12/16 16:45:10;;;;;;;102.63;52.97;;;;;;;;;;4961772;28;20117;-86
2021/12/16 16:47:46;;;;;;;98.15;48.17;;;;;;;;;;4978763;28;20321;-86
2021/12/16 16:50:13;;;;;;;106.75;56.70;;;;;;;;;;4978577;28;20027;-86
2021/12/16 16:52:44;;;;;;;121.93;60.55;;;;;;;;;;4952263;29;20329;-90
2021/12/16 16:55:13;;;;;;;133.18;61.83;;;;;;;;;;4959399;29;20020;-89
2021/12/16 16:57:43;;;;;;;163.18;65.97;;;;;;;;;;4959108;29;20355;-89
2021/12/16 17:00:14;;;;;;;129.50;59.45;;;;;;;;;;4960959;28;20054;-89
2021/12/16 17:02:45;;;;;;;109.22;56.28;;;;;;;;;;4967492;28;20038;-89
2021/12/16 17:05:20;;;;;;;113.57;60.38;;;;;;;;;;4978835;28;20507;-82
2021/12/16 17:08:09;;;;;;;118.68;63.72;;;;;;;;;;4961305;28;20039;-91
2021/12/16 17:11:15;;;;;;;97.93;53.78;;;;;;;;;;4978442;28;20030;-91
2021/12/16 17:18:49;;;;;;;121.45;58.88;;;;;;;;;;4881951;29;20034;-93
2021/12/16 17:21:18;;;;;;;112.07;59.25;;;;;;;;;;4881979;29;20104;-93
2021/12/16 17:23:49;;;;;;;133.68;65.93;;;;;;;;;;4881876;29;20033;-94
2021/12/16 17:26:32;;;;;;;95.53;51.40;;;;;;;;;;4881983;29;20032;-93
2021/12/16 17:29:05;;;;;;;136.57;66.82;;;;;;;;;;4866020;29;20429;-92
2021/12/16 17:31:33;;;;;;;100.10;57.92;;;;;;;;;;4881617;29;20052;-93
2021/12/16 17:34:13;;;;;;;105.70;59.38;;;;;;;;;;4882850;29;20029;-93
2021/12/16 17:36:52;;;;;;;107.57;60.97;;;;;;;;;;4885265;29;20025;-91
2021/12/16 17:39:20;;;;;;;114.45;63.25;;;;;;;;;;4869701;29;20175;-91
2021/12/16 17:41:54;;;;;;;106.65;61.90;;;;;;;;;;4885313;29;20127;-92
2021/12/16 17:44:20;;;;;;;95.38;55.50;;;;;;;;;;4931022;28;20328;-90
2021/12/16 17:46:51;;;;;;;77.90;46.10;;;;;;;;;;4964853;28;20037;-90
2021/12/16 17:49:17;;;;;;;73.43;44.45;;;;;;;;;;4963569;28;20105;-90
2021/12/16 17:51:43;;;;;;;78.78;46.38;;;;;;;;;;4974426;28;20042;-92
2021/12/16 17:54:11;;;;;;;77.72;46.92;;;;;;;;;;4964342;28;20066;-90
2021/12/16 17:56:38;;;;;;;77.10;47.22;;;;;;;;;;4964081;28;20417;-94
2021/12/16 17:59:05;;;;;;;78.70;47.58;;;;;;;;;;4980393;28;20097;-93
2021/12/16 18:01:41;;;;;;;86.95;49.97;;;;;;;;;;4964343;28;20031;-92
2021/12/16 18:04:11;;;;;;;89.35;50.63;;;;;;;;;;4981614;28;20026;-93
2021/12/16 18:06:55;;;;;;;85.78;49.88;;;;;;;;;;4981734;28;20030;-96
2021/12/16 18:09:22;;;;;;;85.65;48.42;;;;;;;;;;4981947;28;20073;-93
2021/12/16 18:11:57;;;;;;;84.78;49.63;;;;;;;;;;4964072;28;20035;-96
2021/12/16 18:14:27;;;;;;;83.35;47.30;;;;;;;;;;4981001;28;20037;-94
2021/12/16 18:16:56;;;;;;;87.47;49.80;;;;;;;;;;4980785;28;20050;-92
2021/12/16 18:19:26;;;;;;;89.95;49.10;;;;;;;;;;4981245;28;20123;-94
2021/12/16 18:21:54;;;;;;;97.85;54.58;;;;;;;;;;4981581;28;20428;-87
2021/12/16 18:24:20;;;;;;;88.07;51.65;;;;;;;;;;4980994;28;20023;-90
2021/12/16 18:26:48;;;;;;;92.80;53.30;;;;;;;;;;4980756;28;20030;-89
2021/12/16 18:32:26;;;;;;;107.93;62.67;;;;;;;;;;4966190;28;20041;-87
2021/12/16 18:34:52;;;;;;;93.82;53.65;;;;;;;;;;4963908;28;20029;-88
2021/12/16 18:37:24;;;;;;;111.78;66.07;;;;;;;;;;4960905;28;20440;-92
2021/12/16 18:39:51;;;;;;;103.45;57.80;;;;;;;;;;4980120;28;20038;-89
2021/12/16 18:42:19;;;;;;;96.97;54.47;;;;;;;;;;4978419;28;20435;-89
2021/12/16 18:44:48;;;;;;;93.50;52.78;;;;;;;;;;4972874;28;20062;-89
2021/12/16 18:47:36;;;;;;;87.32;50.60;;;;;;;;;;4960699;29;20084;-87
2021/12/16 18:50:28;;;;;;;84.95;49.03;;;;;;;;;;4968944;28;20425;-88
2021/12/16 18:55:41;;;;;;;92.28;52.25;;;;;;;;;;4961766;28;20147;-88
2021/12/16 18:58:07;;;;;;;91.22;49.47;;;;;;;;;;4973189;28;20034;-91
2021/12/16 19:00:34;;;;;;;87.68;50.55;;;;;;;;;;4961592;28;20050;-92
2021/12/16 19:03:00;;;;;;;107.18;56.47;;;;;;;;;;4961320;28;20035;-90
2021/12/16 19:05:27;;;;;;;86.05;50.03;;;;;;;;;;4978235;28;20022;-87
2021/12/16 19:07:53;;;;;;;82.30;48.25;;;;;;;;;;4962919;28;20034;-88
2021/12/16 19:10:20;;;;;;;85.38;50.03;;;;;;;;;;4962882;28;20038;-86
2021/12/16 19:12:47;;;;;;;97.22;54.00;;;;;;;;;;4978673;28;20050;-91